sensor_id;sensor_type;location;lat;lon;timestamp;P1;durP1;ratioP1;P2;durP2;ratioP2
49934;SDS011;39898;41.762;26.200;2023-04-15T13:50:41;8.57;;;1.70;;
49934;SDS011;39898;41.762;26.200;2023-04-15T13:53:11;4.05;;;1.75;;
49934;SDS011;39898;41.762;26.200;2023-04-15T13:55:38;9.95;;;2.33;;
49934;SDS011;39898;41.762;26.200;2023-04-15T13:58:07;6.75;;;1.45;;
49934;SDS011;39898;41.762;26.200;2023-04-15T14:00:34;4.55;;;1.25;;
49934;SDS011;39898;41.762;26.200;2023-04-15T14:03:01;8.15;;;1.75;;
49934;SDS011;39898;41.762;26.200;2023-04-15T14:05:28;13.57;;;2.58;;
49934;SDS011;39898;41.762;26.200;2023-04-15T14:07:54;6.63;;;1.73;;
49934;SDS011;39898;41.762;26.200;2023-04-15T14:10:21;8.88;;;1.90;;
49934;SDS011;39898;41.762;26.200;2023-04-15T14:12:47;8.93;;;1.75;;
49934;SDS011;39898;41.762;26.200;2023-04-15T14:15:14;10.40;;;2.55;;
49934;SDS011;39898;41.762;26.200;2023-04-15T14:17:40;8.20;;;1.83;;
49934;SDS011;39898;41.762;26.200;2023-04-15T14:20:08;6.70;;;1.75;;
49934;SDS011;39898;41.762;26.200;2023-04-15T14:22:35;7.47;;;2.17;;
49934;SDS011;39898;41.762;26.200;2023-04-15T14:25:01;6.93;;;1.95;;
49934;SDS011;39898;41.762;26.200;2023-04-15T14:27:28;8.80;;;2.22;;
49934;SDS011;39898;41.762;26.200;2023-04-15T14:29:55;6.72;;;1.80;;
49934;SDS011;39898;41.762;26.200;2023-04-15T14:32:24;8.30;;;2.03;;
49934;SDS011;39898;41.762;26.200;2023-04-15T14:34:50;8.40;;;1.80;;
49934;SDS011;39898;41.762;26.200;2023-04-15T14:37:17;8.93;;;1.75;;
49934;SDS011;39898;41.762;26.200;2023-04-15T14:39:43;4.38;;;1.35;;
49934;SDS011;39898;41.762;26.200;2023-04-15T14:42:10;6.75;;;1.50;;
49934;SDS011;39898;41.762;26.200;2023-04-15T14:44:36;11.38;;;2.40;;
49934;SDS011;39898;41.762;26.200;2023-04-15T14:47:03;14.45;;;2.10;;
49934;SDS011;39898;41.762;26.200;2023-04-15T14:49:29;9.25;;;1.88;;
49934;SDS011;39898;41.762;26.200;2023-04-15T14:51:57;7.63;;;2.23;;
49934;SDS011;39898;41.762;26.200;2023-04-15T14:54:23;10.82;;;3.35;;
49934;SDS011;39898;41.762;26.200;2023-04-15T14:56:50;11.52;;;2.92;;
49934;SDS011;39898;41.762;26.200;2023-04-15T14:59:16;9.20;;;1.98;;
49934;SDS011;39898;41.762;26.200;2023-04-15T15:01:43;5.85;;;1.77;;
49934;SDS011;39898;41.762;26.200;2023-04-15T15:04:09;8.07;;;1.60;;
49934;SDS011;39898;41.762;26.200;2023-04-15T15:06:36;6.35;;;1.90;;
49934;SDS011;39898;41.762;26.200;2023-04-15T15:09:03;8.18;;;1.90;;
49934;SDS011;39898;41.762;26.200;2023-04-15T15:11:30;7.87;;;1.80;;
49934;SDS011;39898;41.762;26.200;2023-04-15T15:13:57;9.18;;;1.90;;
49934;SDS011;39898;41.762;26.200;2023-04-15T15:16:23;5.53;;;2.05;;
49934;SDS011;39898;41.762;26.200;2023-04-15T15:18:50;9.90;;;1.83;;
49934;SDS011;39898;41.762;26.200;2023-04-15T15:21:16;14.35;;;3.20;;
49934;SDS011;39898;41.762;26.200;2023-04-15T15:23:44;15.13;;;3.65;;
49934;SDS011;39898;41.762;26.200;2023-04-15T15:26:10;19.35;;;2.53;;
49934;SDS011;39898;41.762;26.200;2023-04-15T15:28:37;11.90;;;2.95;;
49934;SDS011;39898;41.762;26.200;2023-04-15T15:31:04;14.48;;;2.83;;
49934;SDS011;39898;41.762;26.200;2023-04-15T15:33:31;21.83;;;3.08;;
49934;SDS011;39898;41.762;26.200;2023-04-15T15:35:58;16.30;;;3.50;;
49934;SDS011;39898;41.762;26.200;2023-04-15T15:38:24;13.40;;;2.90;;
49934;SDS011;39898;41.762;26.200;2023-04-15T15:40:51;12.32;;;3.55;;
49934;SDS011;39898;41.762;26.200;2023-04-15T15:43:18;22.85;;;3.00;;
49934;SDS011;39898;41.762;26.200;2023-04-15T15:45:44;9.80;;;2.33;;
49934;SDS011;39898;41.762;26.200;2023-04-15T15:48:11;12.93;;;2.72;;
49934;SDS011;39898;41.762;26.200;2023-04-15T15:50:37;12.32;;;2.60;;
49934;SDS011;39898;41.762;26.200;2023-04-15T15:53:04;12.80;;;3.50;;
49934;SDS011;39898;41.762;26.200;2023-04-15T15:55:31;11.77;;;4.25;;
49934;SDS011;39898;41.762;26.200;2023-04-15T15:57:57;14.40;;;4.13;;
49934;SDS011;39898;41.762;26.200;2023-04-15T16:00:24;19.08;;;6.38;;
49934;SDS011;39898;41.762;26.200;2023-04-15T16:02:53;25.27;;;8.80;;
49934;SDS011;39898;41.762;26.200;2023-04-15T16:05:32;16.52;;;6.18;;
49934;SDS011;39898;41.762;26.200;2023-04-15T16:07:59;17.40;;;3.95;;
49934;SDS011;39898;41.762;26.200;2023-04-15T16:10:26;16.70;;;6.95;;
49934;SDS011;39898;41.762;26.200;2023-04-15T16:12:53;18.23;;;6.28;;
49934;SDS011;39898;41.762;26.200;2023-04-15T16:15:19;9.85;;;3.88;;
49934;SDS011;39898;41.762;26.200;2023-04-15T16:17:46;13.13;;;2.88;;
49934;SDS011;39898;41.762;26.200;2023-04-15T16:20:12;20.10;;;2.97;;
49934;SDS011;39898;41.762;26.200;2023-04-15T16:22:39;10.52;;;2.63;;
49934;SDS011;39898;41.762;26.200;2023-04-15T16:25:06;10.10;;;3.08;;
49934;SDS011;39898;41.762;26.200;2023-04-15T16:27:33;10.73;;;2.67;;
49934;SDS011;39898;41.762;26.200;2023-04-15T16:30:08;13.60;;;4.30;;
49934;SDS011;39898;41.762;26.200;2023-04-15T16:32:35;18.10;;;4.10;;
49934;SDS011;39898;41.762;26.200;2023-04-15T16:35:02;16.38;;;4.70;;
49934;SDS011;39898;41.762;26.200;2023-04-15T16:37:29;16.63;;;3.72;;
49934;SDS011;39898;41.762;26.200;2023-04-15T16:39:57;13.27;;;3.67;;
49934;SDS011;39898;41.762;26.200;2023-04-15T16:42:23;19.27;;;6.70;;
49934;SDS011;39898;41.762;26.200;2023-04-15T16:44:50;21.20;;;6.60;;
49934;SDS011;39898;41.762;26.200;2023-04-15T16:47:16;24.98;;;4.65;;
49934;SDS011;39898;41.762;26.200;2023-04-15T16:49:43;16.00;;;3.45;;
49934;SDS011;39898;41.762;26.200;2023-04-15T16:52:09;14.23;;;3.20;;
49934;SDS011;39898;41.762;26.200;2023-04-15T16:54:36;8.27;;;2.80;;
49934;SDS011;39898;41.762;26.200;2023-04-15T16:57:07;11.23;;;3.30;;
49934;SDS011;39898;41.762;26.200;2023-04-15T16:59:33;13.98;;;3.17;;
49934;SDS011;39898;41.762;26.200;2023-04-15T17:02:00;15.57;;;2.90;;
49934;SDS011;39898;41.762;26.200;2023-04-15T17:04:27;14.00;;;3.08;;
49934;SDS011;39898;41.762;26.200;2023-04-15T17:06:53;19.15;;;2.95;;
49934;SDS011;39898;41.762;26.200;2023-04-15T17:09:20;22.52;;;3.13;;
49934;SDS011;39898;41.762;26.200;2023-04-15T17:11:46;8.73;;;2.75;;
49934;SDS011;39898;41.762;26.200;2023-04-15T17:14:13;11.20;;;2.75;;
49934;SDS011;39898;41.762;26.200;2023-04-15T17:16:40;9.48;;;2.70;;
49934;SDS011;39898;41.762;26.200;2023-04-15T17:19:07;14.35;;;3.03;;
49934;SDS011;39898;41.762;26.200;2023-04-15T17:21:34;10.32;;;3.42;;
49934;SDS011;39898;41.762;26.200;2023-04-15T17:24:01;11.77;;;2.92;;
49934;SDS011;39898;41.762;26.200;2023-04-15T17:26:27;13.10;;;4.20;;
49934;SDS011;39898;41.762;26.200;2023-04-15T17:28:54;15.52;;;3.85;;
49934;SDS011;39898;41.762;26.200;2023-04-15T17:31:20;14.93;;;3.97;;
49934;SDS011;39898;41.762;26.200;2023-04-15T17:33:47;12.32;;;4.03;;
49934;SDS011;39898;41.762;26.200;2023-04-15T17:36:34;19.08;;;5.32;;
49934;SDS011;39898;41.762;26.200;2023-04-15T17:39:01;10.68;;;3.30;;
49934;SDS011;39898;41.762;26.200;2023-04-15T17:41:28;15.07;;;4.63;;
49934;SDS011;39898;41.762;26.200;2023-04-15T17:43:55;13.27;;;4.13;;
49934;SDS011;39898;41.762;26.200;2023-04-15T17:46:21;13.85;;;4.65;;
49934;SDS011;39898;41.762;26.200;2023-04-15T17:48:48;14.52;;;3.95;;
49934;SDS011;39898;41.762;26.200;2023-04-15T17:51:14;6.90;;;3.55;;
49934;SDS011;39898;41.762;26.200;2023-04-15T17:53:42;14.88;;;3.70;;
49934;SDS011;39898;41.762;26.200;2023-04-15T17:56:08;10.85;;;3.00;;
49934;SDS011;39898;41.762;26.200;2023-04-15T17:58:35;11.70;;;3.25;;
49934;SDS011;39898;41.762;26.200;2023-04-15T18:01:01;7.60;;;2.75;;
49934;SDS011;39898;41.762;26.200;2023-04-15T18:03:28;16.15;;;4.13;;
49934;SDS011;39898;41.762;26.200;2023-04-15T18:05:55;12.57;;;3.17;;
49934;SDS011;39898;41.762;26.200;2023-04-15T18:08:21;8.15;;;2.92;;
49934;SDS011;39898;41.762;26.200;2023-04-15T18:10:48;10.88;;;3.50;;
49934;SDS011;39898;41.762;26.200;2023-04-15T18:13:14;15.10;;;4.10;;
49934;SDS011;39898;41.762;26.200;2023-04-15T18:15:41;11.55;;;3.95;;
49934;SDS011;39898;41.762;26.200;2023-04-15T18:18:11;11.77;;;4.20;;
49934;SDS011;39898;41.762;26.200;2023-04-15T18:20:37;13.70;;;4.38;;
49934;SDS011;39898;41.762;26.200;2023-04-15T18:23:04;15.32;;;4.40;;
49934;SDS011;39898;41.762;26.200;2023-04-15T18:25:30;12.95;;;4.13;;
49934;SDS011;39898;41.762;26.200;2023-04-15T18:27:59;22.80;;;7.50;;
49934;SDS011;39898;41.762;26.200;2023-04-15T18:30:25;18.27;;;5.30;;
49934;SDS011;39898;41.762;26.200;2023-04-15T18:32:52;28.88;;;5.90;;
49934;SDS011;39898;41.762;26.200;2023-04-15T18:35:18;24.20;;;5.38;;
49934;SDS011;39898;41.762;26.200;2023-04-15T18:37:46;26.17;;;6.28;;
49934;SDS011;39898;41.762;26.200;2023-04-15T18:40:12;24.10;;;5.55;;
49934;SDS011;39898;41.762;26.200;2023-04-15T18:42:41;23.35;;;5.50;;
49934;SDS011;39898;41.762;26.200;2023-04-15T18:45:08;21.83;;;6.60;;
49934;SDS011;39898;41.762;26.200;2023-04-15T18:47:35;18.33;;;5.80;;
49934;SDS011;39898;41.762;26.200;2023-04-15T18:50:01;25.77;;;6.18;;
49934;SDS011;39898;41.762;26.200;2023-04-15T18:52:28;29.60;;;7.55;;
49934;SDS011;39898;41.762;26.200;2023-04-15T18:54:55;27.27;;;5.45;;
49934;SDS011;39898;41.762;26.200;2023-04-15T18:57:22;20.27;;;6.22;;
49934;SDS011;39898;41.762;26.200;2023-04-15T19:00:00;21.67;;;5.93;;
49934;SDS011;39898;41.762;26.200;2023-04-15T19:02:26;15.13;;;5.18;;
49934;SDS011;39898;41.762;26.200;2023-04-15T19:04:54;21.33;;;4.97;;
49934;SDS011;39898;41.762;26.200;2023-04-15T19:07:20;17.58;;;5.13;;
49934;SDS011;39898;41.762;26.200;2023-04-15T19:09:47;19.48;;;4.75;;
49934;SDS011;39898;41.762;26.200;2023-04-15T19:12:13;22.10;;;5.85;;
49934;SDS011;39898;41.762;26.200;2023-04-15T19:14:40;18.45;;;6.07;;
49934;SDS011;39898;41.762;26.200;2023-04-15T19:17:07;23.92;;;6.75;;
49934;SDS011;39898;41.762;26.200;2023-04-15T19:19:33;32.15;;;6.72;;
49934;SDS011;39898;41.762;26.200;2023-04-15T19:22:00;30.52;;;7.13;;
49934;SDS011;39898;41.762;26.200;2023-04-15T19:24:29;24.35;;;6.68;;
49934;SDS011;39898;41.762;26.200;2023-04-15T19:26:58;19.50;;;6.65;;
49934;SDS011;39898;41.762;26.200;2023-04-15T19:29:24;33.00;;;6.80;;
49934;SDS011;39898;41.762;26.200;2023-04-15T19:31:53;36.30;;;7.78;;
49934;SDS011;39898;41.762;26.200;2023-04-15T19:34:20;31.48;;;7.55;;
49934;SDS011;39898;41.762;26.200;2023-04-15T19:36:47;33.65;;;8.15;;
49934;SDS011;39898;41.762;26.200;2023-04-15T19:39:13;25.45;;;6.75;;
49934;SDS011;39898;41.762;26.200;2023-04-15T19:41:40;24.95;;;7.03;;
49934;SDS011;39898;41.762;26.200;2023-04-15T19:44:07;25.73;;;7.75;;
49934;SDS011;39898;41.762;26.200;2023-04-15T19:46:33;26.75;;;8.82;;
49934;SDS011;39898;41.762;26.200;2023-04-15T19:49:00;26.52;;;7.28;;
49934;SDS011;39898;41.762;26.200;2023-04-15T19:51:28;34.15;;;8.88;;
49934;SDS011;39898;41.762;26.200;2023-04-15T19:53:54;27.83;;;8.82;;
49934;SDS011;39898;41.762;26.200;2023-04-15T19:56:22;38.37;;;9.47;;
49934;SDS011;39898;41.762;26.200;2023-04-15T19:58:49;30.63;;;8.52;;
49934;SDS011;39898;41.762;26.200;2023-04-15T20:01:18;34.10;;;7.88;;
49934;SDS011;39898;41.762;26.200;2023-04-15T20:03:45;26.20;;;8.33;;
49934;SDS011;39898;41.762;26.200;2023-04-15T20:06:15;43.17;;;9.35;;
49934;SDS011;39898;41.762;26.200;2023-04-15T20:08:42;42.65;;;9.30;;
49934;SDS011;39898;41.762;26.200;2023-04-15T20:11:10;29.77;;;7.65;;
49934;SDS011;39898;41.762;26.200;2023-04-15T20:13:40;34.60;;;8.90;;
49934;SDS011;39898;41.762;26.200;2023-04-15T20:16:06;26.92;;;9.95;;
49934;SDS011;39898;41.762;26.200;2023-04-15T20:18:33;53.80;;;12.48;;
49934;SDS011;39898;41.762;26.200;2023-04-15T20:21:00;32.92;;;10.10;;
49934;SDS011;39898;41.762;26.200;2023-04-15T20:23:27;34.78;;;10.38;;
49934;SDS011;39898;41.762;26.200;2023-04-15T20:25:54;37.53;;;12.27;;
49934;SDS011;39898;41.762;26.200;2023-04-15T20:28:20;39.58;;;11.57;;
49934;SDS011;39898;41.762;26.200;2023-04-15T20:30:48;42.53;;;11.35;;
49934;SDS011;39898;41.762;26.200;2023-04-15T20:33:15;40.10;;;11.55;;
49934;SDS011;39898;41.762;26.200;2023-04-15T20:35:42;46.10;;;12.88;;
49934;SDS011;39898;41.762;26.200;2023-04-15T20:38:08;54.53;;;12.32;;
49934;SDS011;39898;41.762;26.200;2023-04-15T20:40:35;37.95;;;10.52;;
49934;SDS011;39898;41.762;26.200;2023-04-15T20:43:02;41.03;;;9.77;;
49934;SDS011;39898;41.762;26.200;2023-04-15T20:45:28;31.45;;;10.75;;
49934;SDS011;39898;41.762;26.200;2023-04-15T20:47:55;52.35;;;15.07;;
49934;SDS011;39898;41.762;26.200;2023-04-15T20:50:22;39.90;;;13.45;;
49934;SDS011;39898;41.762;26.200;2023-04-15T20:52:49;84.82;;;25.45;;
49934;SDS011;39898;41.762;26.200;2023-04-15T20:55:15;64.68;;;21.17;;
49934;SDS011;39898;41.762;26.200;2023-04-15T20:57:42;35.03;;;13.13;;
49934;SDS011;39898;41.762;26.200;2023-04-15T21:00:09;28.73;;;8.00;;
49934;SDS011;39898;41.762;26.200;2023-04-15T21:02:37;28.40;;;7.67;;
49934;SDS011;39898;41.762;26.200;2023-04-15T21:05:04;30.73;;;8.13;;
49934;SDS011;39898;41.762;26.200;2023-04-15T21:07:31;25.98;;;7.13;;
49934;SDS011;39898;41.762;26.200;2023-04-15T21:09:57;21.80;;;7.85;;
49934;SDS011;39898;41.762;26.200;2023-04-15T21:12:24;23.52;;;7.05;;
49934;SDS011;39898;41.762;26.200;2023-04-15T21:14:51;34.15;;;6.45;;
49934;SDS011;39898;41.762;26.200;2023-04-15T21:17:19;17.98;;;6.22;;
49934;SDS011;39898;41.762;26.200;2023-04-15T21:19:46;21.90;;;6.85;;
49934;SDS011;39898;41.762;26.200;2023-04-15T21:22:12;25.70;;;7.85;;
49934;SDS011;39898;41.762;26.200;2023-04-15T21:24:39;24.80;;;7.82;;
49934;SDS011;39898;41.762;26.200;2023-04-15T21:27:06;20.90;;;6.18;;
49934;SDS011;39898;41.762;26.200;2023-04-15T21:29:32;28.90;;;6.63;;
49934;SDS011;39898;41.762;26.200;2023-04-15T21:31:59;16.25;;;6.45;;
49934;SDS011;39898;41.762;26.200;2023-04-15T21:34:25;18.20;;;5.93;;
49934;SDS011;39898;41.762;26.200;2023-04-15T21:36:52;20.15;;;6.25;;
49934;SDS011;39898;41.762;26.200;2023-04-15T21:39:19;31.63;;;7.40;;
49934;SDS011;39898;41.762;26.200;2023-04-15T21:41:46;19.77;;;6.38;;
49934;SDS011;39898;41.762;26.200;2023-04-15T21:44:12;16.98;;;6.75;;
49934;SDS011;39898;41.762;26.200;2023-04-15T21:46:40;16.25;;;6.30;;
49934;SDS011;39898;41.762;26.200;2023-04-15T21:49:10;26.33;;;8.40;;
49934;SDS011;39898;41.762;26.200;2023-04-15T21:51:37;20.75;;;6.38;;
49934;SDS011;39898;41.762;26.200;2023-04-15T21:54:03;25.90;;;8.32;;
49934;SDS011;39898;41.762;26.200;2023-04-15T21:56:30;22.05;;;8.60;;
49934;SDS011;39898;41.762;26.200;2023-04-15T21:58:57;24.38;;;7.60;;
49934;SDS011;39898;41.762;26.200;2023-04-15T22:01:24;21.00;;;6.25;;
49934;SDS011;39898;41.762;26.200;2023-04-15T22:03:50;17.60;;;6.38;;
49934;SDS011;39898;41.762;26.200;2023-04-15T22:06:18;20.25;;;5.60;;
49934;SDS011;39898;41.762;26.200;2023-04-15T22:08:44;18.80;;;5.75;;
49934;SDS011;39898;41.762;26.200;2023-04-15T22:11:31;22.27;;;6.28;;
49934;SDS011;39898;41.762;26.200;2023-04-15T22:13:57;22.35;;;6.15;;
49934;SDS011;39898;41.762;26.200;2023-04-15T22:16:24;18.30;;;5.80;;
49934;SDS011;39898;41.762;26.200;2023-04-15T22:18:52;15.60;;;6.03;;
49934;SDS011;39898;41.762;26.200;2023-04-15T22:21:18;17.83;;;7.53;;
49934;SDS011;39898;41.762;26.200;2023-04-15T22:23:45;21.02;;;5.43;;
49934;SDS011;39898;41.762;26.200;2023-04-15T22:26:12;22.73;;;5.78;;
49934;SDS011;39898;41.762;26.200;2023-04-15T22:28:39;27.80;;;7.55;;
49934;SDS011;39898;41.762;26.200;2023-04-15T22:31:06;25.17;;;7.10;;
49934;SDS011;39898;41.762;26.200;2023-04-15T22:33:32;20.38;;;7.30;;
49934;SDS011;39898;41.762;26.200;2023-04-15T22:35:59;25.85;;;7.35;;
49934;SDS011;39898;41.762;26.200;2023-04-15T22:38:25;19.20;;;6.35;;
49934;SDS011;39898;41.762;26.200;2023-04-15T22:40:52;21.73;;;6.30;;
49934;SDS011;39898;41.762;26.200;2023-04-15T22:43:19;20.98;;;5.68;;
49934;SDS011;39898;41.762;26.200;2023-04-15T22:45:49;19.90;;;6.03;;
49934;SDS011;39898;41.762;26.200;2023-04-15T22:48:16;24.80;;;5.82;;
49934;SDS011;39898;41.762;26.200;2023-04-15T22:50:43;24.40;;;6.18;;
49934;SDS011;39898;41.762;26.200;2023-04-15T22:53:09;14.50;;;5.32;;
49934;SDS011;39898;41.762;26.200;2023-04-15T22:55:36;20.98;;;5.65;;
49934;SDS011;39898;41.762;26.200;2023-04-15T22:58:02;18.17;;;6.25;;
49934;SDS011;39898;41.762;26.200;2023-04-15T23:00:29;16.23;;;5.45;;
49934;SDS011;39898;41.762;26.200;2023-04-15T23:02:55;22.02;;;6.07;;
49934;SDS011;39898;41.762;26.200;2023-04-15T23:05:22;17.70;;;6.40;;
49934;SDS011;39898;41.762;26.200;2023-04-15T23:07:49;17.27;;;6.13;;
49934;SDS011;39898;41.762;26.200;2023-04-15T23:10:16;20.60;;;6.72;;
49934;SDS011;39898;41.762;26.200;2023-04-15T23:12:42;18.20;;;6.63;;
49934;SDS011;39898;41.762;26.200;2023-04-15T23:15:09;22.35;;;6.85;;
49934;SDS011;39898;41.762;26.200;2023-04-15T23:17:35;25.73;;;6.88;;
49934;SDS011;39898;41.762;26.200;2023-04-15T23:20:02;23.35;;;7.88;;
49934;SDS011;39898;41.762;26.200;2023-04-15T23:22:28;20.35;;;8.30;;
49934;SDS011;39898;41.762;26.200;2023-04-15T23:24:55;24.13;;;8.18;;
49934;SDS011;39898;41.762;26.200;2023-04-15T23:27:22;35.15;;;7.93;;
49934;SDS011;39898;41.762;26.200;2023-04-15T23:29:48;26.75;;;8.38;;
49934;SDS011;39898;41.762;26.200;2023-04-15T23:32:15;27.55;;;8.98;;
49934;SDS011;39898;41.762;26.200;2023-04-15T23:34:41;25.40;;;10.00;;
49934;SDS011;39898;41.762;26.200;2023-04-15T23:37:08;26.00;;;8.25;;
49934;SDS011;39898;41.762;26.200;2023-04-15T23:39:34;29.13;;;8.15;;
49934;SDS011;39898;41.762;26.200;2023-04-15T23:42:01;24.75;;;9.18;;
49934;SDS011;39898;41.762;26.200;2023-04-15T23:44:28;26.38;;;11.25;;
49934;SDS011;39898;41.762;26.200;2023-04-15T23:46:55;29.25;;;10.20;;
49934;SDS011;39898;41.762;26.200;2023-04-15T23:49:21;24.67;;;9.05;;
49934;SDS011;39898;41.762;26.200;2023-04-15T23:51:48;35.63;;;9.30;;
49934;SDS011;39898;41.762;26.200;2023-04-15T23:54:14;23.77;;;9.27;;
49934;SDS011;39898;41.762;26.200;2023-04-15T23:56:41;25.45;;;9.88;;
49934;SDS011;39898;41.762;26.200;2023-04-15T23:59:08;25.83;;;10.05;;
